sensor_id;sensor_type;location;lat;lon;timestamp;P1;durP1;ratioP1;P2;durP2;ratioP2
52512;SDS011;38422;53.172;6.974;2023-07-29T00:01:46;8.48;;;5.90;;
52512;SDS011;38422;53.172;6.974;2023-07-29T00:04:14;7.07;;;5.70;;
52512;SDS011;38422;53.172;6.974;2023-07-29T00:06:40;6.88;;;5.97;;
52512;SDS011;38422;53.172;6.974;2023-07-29T00:09:05;8.10;;;5.72;;
52512;SDS011;38422;53.172;6.974;2023-07-29T00:11:31;7.22;;;5.43;;
52512;SDS011;38422;53.172;6.974;2023-07-29T00:13:59;6.50;;;5.43;;
52512;SDS011;38422;53.172;6.974;2023-07-29T00:18:51;6.70;;;6.00;;
52512;SDS011;38422;53.172;6.974;2023-07-29T00:21:17;9.95;;;5.90;;
52512;SDS011;38422;53.172;6.974;2023-07-29T00:23:42;8.38;;;5.93;;
52512;SDS011;38422;53.172;6.974;2023-07-29T00:26:08;8.52;;;5.88;;
52512;SDS011;38422;53.172;6.974;2023-07-29T00:28:34;6.30;;;5.40;;
52512;SDS011;38422;53.172;6.974;2023-07-29T00:30:59;10.07;;;5.70;;
52512;SDS011;38422;53.172;6.974;2023-07-29T00:33:25;7.03;;;5.07;;
52512;SDS011;38422;53.172;6.974;2023-07-29T00:35:51;6.53;;;5.60;;
52512;SDS011;38422;53.172;6.974;2023-07-29T00:38:16;7.72;;;5.45;;
52512;SDS011;38422;53.172;6.974;2023-07-29T00:40:42;6.78;;;5.43;;
52512;SDS011;38422;53.172;6.974;2023-07-29T00:43:08;6.83;;;5.50;;
52512;SDS011;38422;53.172;6.974;2023-07-29T00:45:34;6.95;;;5.30;;
52512;SDS011;38422;53.172;6.974;2023-07-29T00:48:00;7.07;;;5.45;;
52512;SDS011;38422;53.172;6.974;2023-07-29T00:52:54;7.55;;;5.53;;
52512;SDS011;38422;53.172;6.974;2023-07-29T00:55:20;6.75;;;4.90;;
52512;SDS011;38422;53.172;6.974;2023-07-29T00:57:46;7.25;;;5.30;;
52512;SDS011;38422;53.172;6.974;2023-07-29T01:00:14;6.68;;;5.30;;
52512;SDS011;38422;53.172;6.974;2023-07-29T01:02:42;6.25;;;4.95;;
52512;SDS011;38422;53.172;6.974;2023-07-29T01:05:08;6.10;;;5.20;;
52512;SDS011;38422;53.172;6.974;2023-07-29T01:10:30;6.95;;;5.30;;
52512;SDS011;38422;53.172;6.974;2023-07-29T01:15:54;9.63;;;5.88;;
52512;SDS011;38422;53.172;6.974;2023-07-29T01:20:52;7.63;;;5.85;;
52512;SDS011;38422;53.172;6.974;2023-07-29T01:23:23;9.02;;;5.57;;
52512;SDS011;38422;53.172;6.974;2023-07-29T01:25:50;7.88;;;5.88;;
52512;SDS011;38422;53.172;6.974;2023-07-29T01:28:16;8.07;;;6.20;;
52512;SDS011;38422;53.172;6.974;2023-07-29T01:30:42;9.27;;;6.65;;
52512;SDS011;38422;53.172;6.974;2023-07-29T01:33:14;8.30;;;6.03;;
52512;SDS011;38422;53.172;6.974;2023-07-29T01:35:57;8.18;;;6.45;;
52512;SDS011;38422;53.172;6.974;2023-07-29T01:38:28;8.52;;;6.60;;
52512;SDS011;38422;53.172;6.974;2023-07-29T01:40:58;9.23;;;6.60;;
52512;SDS011;38422;53.172;6.974;2023-07-29T01:43:27;7.68;;;6.57;;
52512;SDS011;38422;53.172;6.974;2023-07-29T01:45:56;8.77;;;6.43;;
52512;SDS011;38422;53.172;6.974;2023-07-29T01:48:22;8.07;;;6.47;;
52512;SDS011;38422;53.172;6.974;2023-07-29T01:50:48;9.15;;;6.60;;
52512;SDS011;38422;53.172;6.974;2023-07-29T01:53:13;9.23;;;6.38;;
52512;SDS011;38422;53.172;6.974;2023-07-29T01:55:40;9.88;;;6.82;;
52512;SDS011;38422;53.172;6.974;2023-07-29T02:00:32;8.73;;;7.03;;
52512;SDS011;38422;53.172;6.974;2023-07-29T02:02:57;7.40;;;6.40;;
52512;SDS011;38422;53.172;6.974;2023-07-29T02:05:23;10.00;;;7.25;;
52512;SDS011;38422;53.172;6.974;2023-07-29T02:07:49;8.30;;;6.78;;
52512;SDS011;38422;53.172;6.974;2023-07-29T02:10:15;8.80;;;6.55;;
52512;SDS011;38422;53.172;6.974;2023-07-29T02:12:40;10.05;;;7.03;;
52512;SDS011;38422;53.172;6.974;2023-07-29T02:15:06;7.65;;;6.50;;
52512;SDS011;38422;53.172;6.974;2023-07-29T02:17:32;9.70;;;6.75;;
52512;SDS011;38422;53.172;6.974;2023-07-29T02:19:58;9.73;;;6.38;;
52512;SDS011;38422;53.172;6.974;2023-07-29T02:22:24;9.13;;;6.90;;
52512;SDS011;38422;53.172;6.974;2023-07-29T02:24:50;8.95;;;6.40;;
52512;SDS011;38422;53.172;6.974;2023-07-29T02:27:15;8.43;;;6.50;;
52512;SDS011;38422;53.172;6.974;2023-07-29T02:29:41;9.57;;;6.20;;
52512;SDS011;38422;53.172;6.974;2023-07-29T02:32:07;8.23;;;6.15;;
52512;SDS011;38422;53.172;6.974;2023-07-29T02:34:33;7.60;;;6.53;;
52512;SDS011;38422;53.172;6.974;2023-07-29T02:36:59;8.23;;;6.13;;
52512;SDS011;38422;53.172;6.974;2023-07-29T02:39:25;8.98;;;6.60;;
52512;SDS011;38422;53.172;6.974;2023-07-29T02:41:51;9.45;;;6.70;;
52512;SDS011;38422;53.172;6.974;2023-07-29T02:44:16;9.80;;;6.18;;
52512;SDS011;38422;53.172;6.974;2023-07-29T02:46:42;9.07;;;6.53;;
52512;SDS011;38422;53.172;6.974;2023-07-29T02:49:08;9.15;;;6.85;;
52512;SDS011;38422;53.172;6.974;2023-07-29T02:51:34;11.82;;;6.85;;
52512;SDS011;38422;53.172;6.974;2023-07-29T02:53:59;10.50;;;6.82;;
52512;SDS011;38422;53.172;6.974;2023-07-29T02:56:25;10.02;;;6.35;;
52512;SDS011;38422;53.172;6.974;2023-07-29T02:58:51;10.45;;;7.00;;
52512;SDS011;38422;53.172;6.974;2023-07-29T03:01:17;10.10;;;6.75;;
52512;SDS011;38422;53.172;6.974;2023-07-29T03:03:42;11.63;;;6.68;;
52512;SDS011;38422;53.172;6.974;2023-07-29T03:06:09;12.75;;;6.55;;
52512;SDS011;38422;53.172;6.974;2023-07-29T03:08:36;9.02;;;6.75;;
52512;SDS011;38422;53.172;6.974;2023-07-29T03:11:06;10.30;;;6.95;;
52512;SDS011;38422;53.172;6.974;2023-07-29T03:13:33;9.18;;;6.03;;
52512;SDS011;38422;53.172;6.974;2023-07-29T03:16:08;9.48;;;5.80;;
52512;SDS011;38422;53.172;6.974;2023-07-29T03:18:36;9.48;;;6.20;;
52512;SDS011;38422;53.172;6.974;2023-07-29T03:21:02;10.02;;;6.55;;
52512;SDS011;38422;53.172;6.974;2023-07-29T03:23:29;9.10;;;6.03;;
52512;SDS011;38422;53.172;6.974;2023-07-29T03:25:56;10.05;;;6.57;;
52512;SDS011;38422;53.172;6.974;2023-07-29T03:28:24;10.32;;;6.57;;
52512;SDS011;38422;53.172;6.974;2023-07-29T03:30:52;9.32;;;6.00;;
52512;SDS011;38422;53.172;6.974;2023-07-29T03:33:18;9.10;;;5.93;;
52512;SDS011;38422;53.172;6.974;2023-07-29T03:35:44;9.45;;;5.93;;
52512;SDS011;38422;53.172;6.974;2023-07-29T03:38:13;9.63;;;6.07;;
52512;SDS011;38422;53.172;6.974;2023-07-29T03:40:39;12.57;;;6.28;;
52512;SDS011;38422;53.172;6.974;2023-07-29T03:43:06;9.70;;;6.10;;
52512;SDS011;38422;53.172;6.974;2023-07-29T03:45:34;8.38;;;6.18;;
52512;SDS011;38422;53.172;6.974;2023-07-29T03:48:04;9.15;;;5.35;;
52512;SDS011;38422;53.172;6.974;2023-07-29T03:50:30;13.05;;;6.28;;
52512;SDS011;38422;53.172;6.974;2023-07-29T03:52:56;7.60;;;4.90;;
52512;SDS011;38422;53.172;6.974;2023-07-29T03:55:22;7.00;;;5.22;;
52512;SDS011;38422;53.172;6.974;2023-07-29T03:57:48;7.65;;;5.35;;
52512;SDS011;38422;53.172;6.974;2023-07-29T04:00:13;7.80;;;5.30;;
52512;SDS011;38422;53.172;6.974;2023-07-29T04:02:40;8.13;;;5.70;;
52512;SDS011;38422;53.172;6.974;2023-07-29T04:10:01;7.10;;;4.95;;
52512;SDS011;38422;53.172;6.974;2023-07-29T04:12:27;8.00;;;4.80;;
52512;SDS011;38422;53.172;6.974;2023-07-29T04:14:53;9.68;;;4.97;;
52512;SDS011;38422;53.172;6.974;2023-07-29T04:17:18;7.72;;;5.18;;
52512;SDS011;38422;53.172;6.974;2023-07-29T04:19:44;8.30;;;5.50;;
52512;SDS011;38422;53.172;6.974;2023-07-29T04:22:10;11.25;;;6.53;;
52512;SDS011;38422;53.172;6.974;2023-07-29T04:24:35;8.90;;;5.50;;
52512;SDS011;38422;53.172;6.974;2023-07-29T04:27:02;9.20;;;4.95;;
52512;SDS011;38422;53.172;6.974;2023-07-29T04:29:28;7.22;;;4.93;;
52512;SDS011;38422;53.172;6.974;2023-07-29T04:31:54;10.13;;;4.57;;
52512;SDS011;38422;53.172;6.974;2023-07-29T04:34:22;6.30;;;4.63;;
52512;SDS011;38422;53.172;6.974;2023-07-29T04:36:50;9.05;;;5.22;;
52512;SDS011;38422;53.172;6.974;2023-07-29T04:39:16;6.15;;;4.70;;
52512;SDS011;38422;53.172;6.974;2023-07-29T04:41:42;8.05;;;4.50;;
52512;SDS011;38422;53.172;6.974;2023-07-29T04:44:07;6.78;;;4.60;;
52512;SDS011;38422;53.172;6.974;2023-07-29T04:46:33;7.47;;;4.82;;
52512;SDS011;38422;53.172;6.974;2023-07-29T04:49:00;6.35;;;4.35;;
52512;SDS011;38422;53.172;6.974;2023-07-29T04:51:27;6.18;;;4.18;;
52512;SDS011;38422;53.172;6.974;2023-07-29T04:53:53;6.78;;;4.63;;
52512;SDS011;38422;53.172;6.974;2023-07-29T04:56:18;6.53;;;4.22;;
52512;SDS011;38422;53.172;6.974;2023-07-29T04:58:44;6.53;;;4.32;;
52512;SDS011;38422;53.172;6.974;2023-07-29T05:01:10;7.90;;;4.47;;
52512;SDS011;38422;53.172;6.974;2023-07-29T05:03:36;9.00;;;4.43;;
52512;SDS011;38422;53.172;6.974;2023-07-29T05:06:02;5.05;;;3.88;;
52512;SDS011;38422;53.172;6.974;2023-07-29T05:08:28;8.32;;;4.35;;
52512;SDS011;38422;53.172;6.974;2023-07-29T05:10:54;6.70;;;3.78;;
52512;SDS011;38422;53.172;6.974;2023-07-29T05:13:20;7.72;;;4.20;;
52512;SDS011;38422;53.172;6.974;2023-07-29T05:15:47;6.90;;;4.30;;
52512;SDS011;38422;53.172;6.974;2023-07-29T05:18:14;5.72;;;3.50;;
52512;SDS011;38422;53.172;6.974;2023-07-29T05:20:40;6.22;;;3.90;;
52512;SDS011;38422;53.172;6.974;2023-07-29T05:23:06;6.25;;;3.40;;
52512;SDS011;38422;53.172;6.974;2023-07-29T05:25:31;6.38;;;3.58;;
52512;SDS011;38422;53.172;6.974;2023-07-29T05:28:00;7.07;;;3.50;;
52512;SDS011;38422;53.172;6.974;2023-07-29T05:30:26;7.67;;;3.73;;
52512;SDS011;38422;53.172;6.974;2023-07-29T05:32:52;8.17;;;3.80;;
52512;SDS011;38422;53.172;6.974;2023-07-29T05:35:18;6.88;;;3.70;;
52512;SDS011;38422;53.172;6.974;2023-07-29T05:37:44;9.23;;;3.70;;
52512;SDS011;38422;53.172;6.974;2023-07-29T05:40:09;6.47;;;3.47;;
52512;SDS011;38422;53.172;6.974;2023-07-29T05:42:35;6.40;;;3.20;;
52512;SDS011;38422;53.172;6.974;2023-07-29T05:45:01;7.85;;;3.90;;
52512;SDS011;38422;53.172;6.974;2023-07-29T05:47:27;5.95;;;3.20;;
52512;SDS011;38422;53.172;6.974;2023-07-29T05:49:53;6.45;;;3.25;;
52512;SDS011;38422;53.172;6.974;2023-07-29T05:52:22;6.10;;;3.40;;
52512;SDS011;38422;53.172;6.974;2023-07-29T05:54:48;6.97;;;3.65;;
52512;SDS011;38422;53.172;6.974;2023-07-29T05:57:14;6.95;;;3.40;;
52512;SDS011;38422;53.172;6.974;2023-07-29T05:59:39;6.50;;;3.47;;
52512;SDS011;38422;53.172;6.974;2023-07-29T06:02:05;6.15;;;3.33;;
52512;SDS011;38422;53.172;6.974;2023-07-29T06:04:31;5.30;;;3.15;;
52512;SDS011;38422;53.172;6.974;2023-07-29T06:06:57;5.78;;;3.25;;
52512;SDS011;38422;53.172;6.974;2023-07-29T06:09:23;6.63;;;3.28;;
52512;SDS011;38422;53.172;6.974;2023-07-29T06:11:50;8.25;;;3.83;;
52512;SDS011;38422;53.172;6.974;2023-07-29T06:14:16;7.63;;;3.67;;
52512;SDS011;38422;53.172;6.974;2023-07-29T06:16:42;8.60;;;3.20;;
52512;SDS011;38422;53.172;6.974;2023-07-29T06:19:07;8.70;;;3.08;;
52512;SDS011;38422;53.172;6.974;2023-07-29T06:21:34;7.23;;;3.37;;
52512;SDS011;38422;53.172;6.974;2023-07-29T06:24:00;6.90;;;3.28;;
52512;SDS011;38422;53.172;6.974;2023-07-29T06:26:27;11.20;;;3.58;;
52512;SDS011;38422;53.172;6.974;2023-07-29T06:28:53;7.78;;;3.30;;
52512;SDS011;38422;53.172;6.974;2023-07-29T06:31:19;9.77;;;3.08;;
52512;SDS011;38422;53.172;6.974;2023-07-29T06:33:45;6.55;;;3.28;;
52512;SDS011;38422;53.172;6.974;2023-07-29T06:36:11;6.63;;;3.30;;
52512;SDS011;38422;53.172;6.974;2023-07-29T06:38:37;6.45;;;2.88;;
52512;SDS011;38422;53.172;6.974;2023-07-29T06:41:03;5.60;;;2.30;;
52512;SDS011;38422;53.172;6.974;2023-07-29T06:43:29;7.22;;;1.95;;
52512;SDS011;38422;53.172;6.974;2023-07-29T06:45:55;4.72;;;2.00;;
52512;SDS011;38422;53.172;6.974;2023-07-29T06:48:21;4.57;;;2.00;;
52512;SDS011;38422;53.172;6.974;2023-07-29T06:50:47;4.45;;;1.80;;
52512;SDS011;38422;53.172;6.974;2023-07-29T06:53:12;3.70;;;1.83;;
52512;SDS011;38422;53.172;6.974;2023-07-29T06:55:38;4.47;;;2.00;;
52512;SDS011;38422;53.172;6.974;2023-07-29T06:58:05;5.78;;;1.67;;
52512;SDS011;38422;53.172;6.974;2023-07-29T07:00:30;5.20;;;1.88;;
52512;SDS011;38422;53.172;6.974;2023-07-29T07:02:56;4.18;;;1.80;;
52512;SDS011;38422;53.172;6.974;2023-07-29T07:05:22;4.47;;;2.10;;
52512;SDS011;38422;53.172;6.974;2023-07-29T07:07:47;4.82;;;2.10;;
52512;SDS011;38422;53.172;6.974;2023-07-29T07:10:14;6.93;;;2.33;;
52512;SDS011;38422;53.172;6.974;2023-07-29T07:12:39;5.80;;;2.72;;
52512;SDS011;38422;53.172;6.974;2023-07-29T07:15:05;6.40;;;2.42;;
52512;SDS011;38422;53.172;6.974;2023-07-29T07:17:31;6.07;;;2.60;;
52512;SDS011;38422;53.172;6.974;2023-07-29T07:20:00;4.82;;;2.40;;
52512;SDS011;38422;53.172;6.974;2023-07-29T07:22:26;4.07;;;2.28;;
52512;SDS011;38422;53.172;6.974;2023-07-29T07:24:51;7.38;;;2.55;;
52512;SDS011;38422;53.172;6.974;2023-07-29T07:27:17;5.78;;;2.20;;
52512;SDS011;38422;53.172;6.974;2023-07-29T07:29:43;4.78;;;2.58;;
52512;SDS011;38422;53.172;6.974;2023-07-29T07:32:08;5.68;;;2.03;;
52512;SDS011;38422;53.172;6.974;2023-07-29T07:34:34;5.63;;;2.38;;
52512;SDS011;38422;53.172;6.974;2023-07-29T07:37:00;8.82;;;2.70;;
52512;SDS011;38422;53.172;6.974;2023-07-29T07:39:26;5.00;;;2.13;;
52512;SDS011;38422;53.172;6.974;2023-07-29T07:41:51;7.60;;;2.33;;
52512;SDS011;38422;53.172;6.974;2023-07-29T07:44:17;5.07;;;2.40;;
52512;SDS011;38422;53.172;6.974;2023-07-29T07:46:44;6.22;;;3.10;;
52512;SDS011;38422;53.172;6.974;2023-07-29T07:49:10;7.40;;;3.22;;
52512;SDS011;38422;53.172;6.974;2023-07-29T07:51:37;6.35;;;3.25;;
52512;SDS011;38422;53.172;6.974;2023-07-29T07:54:03;8.52;;;3.20;;
52512;SDS011;38422;53.172;6.974;2023-07-29T07:56:29;5.32;;;3.03;;
52512;SDS011;38422;53.172;6.974;2023-07-29T07:58:55;6.72;;;3.08;;
52512;SDS011;38422;53.172;6.974;2023-07-29T08:01:20;5.40;;;3.08;;
52512;SDS011;38422;53.172;6.974;2023-07-29T08:03:46;5.20;;;2.85;;
52512;SDS011;38422;53.172;6.974;2023-07-29T08:06:12;8.50;;;3.10;;
52512;SDS011;38422;53.172;6.974;2023-07-29T08:08:38;5.88;;;3.10;;
52512;SDS011;38422;53.172;6.974;2023-07-29T08:11:03;7.70;;;2.92;;
52512;SDS011;38422;53.172;6.974;2023-07-29T08:13:29;5.35;;;2.90;;
52512;SDS011;38422;53.172;6.974;2023-07-29T08:15:55;4.72;;;3.00;;
52512;SDS011;38422;53.172;6.974;2023-07-29T08:18:20;5.30;;;2.78;;
52512;SDS011;38422;53.172;6.974;2023-07-29T08:20:53;5.30;;;2.85;;
52512;SDS011;38422;53.172;6.974;2023-07-29T08:23:20;5.35;;;2.80;;
52512;SDS011;38422;53.172;6.974;2023-07-29T08:25:53;5.07;;;2.88;;
52512;SDS011;38422;53.172;6.974;2023-07-29T08:28:24;7.93;;;3.25;;
52512;SDS011;38422;53.172;6.974;2023-07-29T08:30:50;5.28;;;3.30;;
52512;SDS011;38422;53.172;6.974;2023-07-29T08:33:15;5.10;;;3.10;;
52512;SDS011;38422;53.172;6.974;2023-07-29T08:35:41;5.82;;;3.13;;
52512;SDS011;38422;53.172;6.974;2023-07-29T08:38:07;4.88;;;2.80;;
52512;SDS011;38422;53.172;6.974;2023-07-29T08:40:34;5.03;;;3.10;;
52512;SDS011;38422;53.172;6.974;2023-07-29T08:43:03;5.72;;;2.53;;
52512;SDS011;38422;53.172;6.974;2023-07-29T08:45:34;6.00;;;2.63;;
52512;SDS011;38422;53.172;6.974;2023-07-29T08:48:02;4.43;;;2.40;;
52512;SDS011;38422;53.172;6.974;2023-07-29T08:50:30;4.78;;;2.78;;
52512;SDS011;38422;53.172;6.974;2023-07-29T08:55:24;3.75;;;2.28;;
52512;SDS011;38422;53.172;6.974;2023-07-29T08:57:50;4.65;;;2.30;;
52512;SDS011;38422;53.172;6.974;2023-07-29T09:00:16;3.70;;;2.00;;
52512;SDS011;38422;53.172;6.974;2023-07-29T09:02:42;4.40;;;2.37;;
52512;SDS011;38422;53.172;6.974;2023-07-29T09:05:08;4.38;;;2.40;;
52512;SDS011;38422;53.172;6.974;2023-07-29T09:07:34;4.20;;;2.17;;
52512;SDS011;38422;53.172;6.974;2023-07-29T09:10:02;5.63;;;2.33;;
52512;SDS011;38422;53.172;6.974;2023-07-29T09:12:28;6.25;;;2.10;;
52512;SDS011;38422;53.172;6.974;2023-07-29T09:14:56;3.58;;;1.80;;
52512;SDS011;38422;53.172;6.974;2023-07-29T09:17:22;4.45;;;2.05;;
52512;SDS011;38422;53.172;6.974;2023-07-29T09:19:48;6.18;;;1.85;;
52512;SDS011;38422;53.172;6.974;2023-07-29T09:22:18;3.55;;;1.45;;
52512;SDS011;38422;53.172;6.974;2023-07-29T09:24:48;3.53;;;1.70;;
52512;SDS011;38422;53.172;6.974;2023-07-29T09:27:27;3.38;;;1.50;;
52512;SDS011;38422;53.172;6.974;2023-07-29T09:29:55;4.68;;;1.60;;
52512;SDS011;38422;53.172;6.974;2023-07-29T09:32:21;3.50;;;1.85;;
52512;SDS011;38422;53.172;6.974;2023-07-29T09:34:48;3.88;;;1.70;;
52512;SDS011;38422;53.172;6.974;2023-07-29T09:37:18;6.97;;;1.80;;
52512;SDS011;38422;53.172;6.974;2023-07-29T09:39:46;3.75;;;1.98;;
52512;SDS011;38422;53.172;6.974;2023-07-29T09:42:20;3.67;;;1.88;;
52512;SDS011;38422;53.172;6.974;2023-07-29T09:44:48;4.47;;;1.92;;
52512;SDS011;38422;53.172;6.974;2023-07-29T09:47:18;3.90;;;1.70;;
52512;SDS011;38422;53.172;6.974;2023-07-29T09:49:45;4.80;;;1.55;;
52512;SDS011;38422;53.172;6.974;2023-07-29T09:52:11;3.22;;;1.65;;
52512;SDS011;38422;53.172;6.974;2023-07-29T09:54:39;3.53;;;1.70;;
52512;SDS011;38422;53.172;6.974;2023-07-29T09:57:06;4.22;;;1.70;;
52512;SDS011;38422;53.172;6.974;2023-07-29T09:59:35;4.45;;;1.40;;
52512;SDS011;38422;53.172;6.974;2023-07-29T10:02:01;4.28;;;1.73;;
52512;SDS011;38422;53.172;6.974;2023-07-29T10:04:27;3.42;;;1.50;;
52512;SDS011;38422;53.172;6.974;2023-07-29T10:06:55;2.67;;;1.42;;
52512;SDS011;38422;53.172;6.974;2023-07-29T10:09:22;2.67;;;1.13;;
52512;SDS011;38422;53.172;6.974;2023-07-29T10:11:51;2.65;;;1.25;;
52512;SDS011;38422;53.172;6.974;2023-07-29T10:14:18;3.55;;;1.50;;
52512;SDS011;38422;53.172;6.974;2023-07-29T10:16:45;3.38;;;1.45;;
52512;SDS011;38422;53.172;6.974;2023-07-29T10:19:11;2.88;;;1.30;;
52512;SDS011;38422;53.172;6.974;2023-07-29T10:21:39;3.15;;;1.27;;
52512;SDS011;38422;53.172;6.974;2023-07-29T10:24:09;3.65;;;1.30;;
52512;SDS011;38422;53.172;6.974;2023-07-29T10:26:44;5.22;;;1.30;;
52512;SDS011;38422;53.172;6.974;2023-07-29T10:29:12;2.45;;;1.20;;
52512;SDS011;38422;53.172;6.974;2023-07-29T10:31:40;3.80;;;1.30;;
52512;SDS011;38422;53.172;6.974;2023-07-29T10:34:08;2.17;;;1.13;;
52512;SDS011;38422;53.172;6.974;2023-07-29T10:36:35;3.92;;;1.15;;
52512;SDS011;38422;53.172;6.974;2023-07-29T10:39:01;2.28;;;0.70;;
52512;SDS011;38422;53.172;6.974;2023-07-29T10:44:55;3.33;;;0.88;;
52512;SDS011;38422;53.172;6.974;2023-07-29T10:49:41;2.13;;;0.88;;
52512;SDS011;38422;53.172;6.974;2023-07-29T10:52:15;3.00;;;1.05;;
52512;SDS011;38422;53.172;6.974;2023-07-29T10:54:52;2.53;;;1.00;;
52512;SDS011;38422;53.172;6.974;2023-07-29T10:57:31;2.13;;;0.93;;
52512;SDS011;38422;53.172;6.974;2023-07-29T10:59:58;1.85;;;1.08;;
52512;SDS011;38422;53.172;6.974;2023-07-29T11:02:31;2.65;;;1.10;;
52512;SDS011;38422;53.172;6.974;2023-07-29T11:05:00;4.05;;;1.10;;
52512;SDS011;38422;53.172;6.974;2023-07-29T11:07:30;3.00;;;1.10;;
52512;SDS011;38422;53.172;6.974;2023-07-29T11:10:07;3.72;;;1.10;;
52512;SDS011;38422;53.172;6.974;2023-07-29T11:15:25;2.38;;;1.20;;
52512;SDS011;38422;53.172;6.974;2023-07-29T11:17:53;5.10;;;1.48;;
52512;SDS011;38422;53.172;6.974;2023-07-29T11:20:30;3.08;;;1.30;;
52512;SDS011;38422;53.172;6.974;2023-07-29T11:22:57;3.90;;;1.30;;
52512;SDS011;38422;53.172;6.974;2023-07-29T11:25:28;2.28;;;1.10;;
52512;SDS011;38422;53.172;6.974;2023-07-29T11:27:56;2.80;;;1.10;;
52512;SDS011;38422;53.172;6.974;2023-07-29T11:30:23;5.38;;;1.25;;
52512;SDS011;38422;53.172;6.974;2023-07-29T11:32:52;3.17;;;1.38;;
52512;SDS011;38422;53.172;6.974;2023-07-29T11:35:18;3.17;;;1.60;;
52512;SDS011;38422;53.172;6.974;2023-07-29T11:37:45;4.80;;;1.20;;
52512;SDS011;38422;53.172;6.974;2023-07-29T11:40:15;5.25;;;1.20;;
52512;SDS011;38422;53.172;6.974;2023-07-29T11:42:43;2.03;;;0.85;;
52512;SDS011;38422;53.172;6.974;2023-07-29T11:45:10;4.80;;;0.85;;
52512;SDS011;38422;53.172;6.974;2023-07-29T11:47:39;4.88;;;1.20;;
52512;SDS011;38422;53.172;6.974;2023-07-29T11:50:06;6.18;;;2.20;;
52512;SDS011;38422;53.172;6.974;2023-07-29T11:52:42;5.88;;;1.52;;
52512;SDS011;38422;53.172;6.974;2023-07-29T11:55:09;4.32;;;1.33;;
52512;SDS011;38422;53.172;6.974;2023-07-29T11:57:37;4.03;;;1.15;;
52512;SDS011;38422;53.172;6.974;2023-07-29T12:00:04;2.53;;;1.10;;
52512;SDS011;38422;53.172;6.974;2023-07-29T12:02:31;3.10;;;1.08;;
52512;SDS011;38422;53.172;6.974;2023-07-29T12:04:58;2.42;;;1.27;;
52512;SDS011;38422;53.172;6.974;2023-07-29T12:07:24;1.63;;;1.00;;
52512;SDS011;38422;53.172;6.974;2023-07-29T12:09:50;2.87;;;1.10;;
52512;SDS011;38422;53.172;6.974;2023-07-29T12:12:17;4.55;;;1.20;;
52512;SDS011;38422;53.172;6.974;2023-07-29T12:14:44;3.87;;;1.37;;
52512;SDS011;38422;53.172;6.974;2023-07-29T12:17:13;2.03;;;1.10;;
52512;SDS011;38422;53.172;6.974;2023-07-29T12:19:39;5.20;;;1.30;;
52512;SDS011;38422;53.172;6.974;2023-07-29T12:22:06;3.15;;;1.00;;
52512;SDS011;38422;53.172;6.974;2023-07-29T12:24:34;3.97;;;0.98;;
52512;SDS011;38422;53.172;6.974;2023-07-29T12:27:01;2.72;;;1.08;;
52512;SDS011;38422;53.172;6.974;2023-07-29T12:29:27;2.47;;;1.00;;
52512;SDS011;38422;53.172;6.974;2023-07-29T12:32:00;2.63;;;1.15;;
52512;SDS011;38422;53.172;6.974;2023-07-29T12:34:27;2.88;;;1.20;;
52512;SDS011;38422;53.172;6.974;2023-07-29T12:36:54;3.22;;;1.20;;
52512;SDS011;38422;53.172;6.974;2023-07-29T12:39:25;2.22;;;1.08;;
52512;SDS011;38422;53.172;6.974;2023-07-29T12:41:57;2.40;;;1.10;;
52512;SDS011;38422;53.172;6.974;2023-07-29T12:44:34;3.90;;;1.60;;
52512;SDS011;38422;53.172;6.974;2023-07-29T12:47:01;3.37;;;1.63;;
52512;SDS011;38422;53.172;6.974;2023-07-29T12:49:28;4.97;;;2.05;;
52512;SDS011;38422;53.172;6.974;2023-07-29T12:51:55;4.38;;;1.80;;
52512;SDS011;38422;53.172;6.974;2023-07-29T12:54:21;6.38;;;1.75;;
52512;SDS011;38422;53.172;6.974;2023-07-29T12:56:47;8.00;;;1.90;;
52512;SDS011;38422;53.172;6.974;2023-07-29T12:59:13;2.27;;;1.43;;
52512;SDS011;38422;53.172;6.974;2023-07-29T13:01:39;3.83;;;1.70;;
52512;SDS011;38422;53.172;6.974;2023-07-29T13:04:04;4.40;;;1.67;;
52512;SDS011;38422;53.172;6.974;2023-07-29T13:06:30;3.53;;;1.50;;
52512;SDS011;38422;53.172;6.974;2023-07-29T13:08:56;3.53;;;1.37;;
52512;SDS011;38422;53.172;6.974;2023-07-29T13:11:21;4.40;;;1.30;;
52512;SDS011;38422;53.172;6.974;2023-07-29T13:13:47;3.97;;;1.80;;
52512;SDS011;38422;53.172;6.974;2023-07-29T13:16:13;4.63;;;1.47;;
52512;SDS011;38422;53.172;6.974;2023-07-29T13:18:38;3.80;;;1.47;;
52512;SDS011;38422;53.172;6.974;2023-07-29T13:21:05;5.10;;;1.42;;
52512;SDS011;38422;53.172;6.974;2023-07-29T13:23:30;3.87;;;1.20;;
52512;SDS011;38422;53.172;6.974;2023-07-29T13:25:57;3.57;;;1.40;;
52512;SDS011;38422;53.172;6.974;2023-07-29T13:28:23;5.55;;;1.48;;
52512;SDS011;38422;53.172;6.974;2023-07-29T13:30:49;2.60;;;1.10;;
52512;SDS011;38422;53.172;6.974;2023-07-29T13:33:14;2.70;;;1.20;;
52512;SDS011;38422;53.172;6.974;2023-07-29T13:35:40;3.07;;;1.17;;
52512;SDS011;38422;53.172;6.974;2023-07-29T13:38:06;2.97;;;1.13;;
52512;SDS011;38422;53.172;6.974;2023-07-29T13:40:34;3.53;;;1.20;;
52512;SDS011;38422;53.172;6.974;2023-07-29T13:43:00;5.65;;;1.83;;
52512;SDS011;38422;53.172;6.974;2023-07-29T13:45:26;3.40;;;1.40;;
52512;SDS011;38422;53.172;6.974;2023-07-29T13:47:52;5.37;;;1.80;;
52512;SDS011;38422;53.172;6.974;2023-07-29T13:50:17;4.97;;;1.80;;
52512;SDS011;38422;53.172;6.974;2023-07-29T13:52:43;5.33;;;1.70;;
52512;SDS011;38422;53.172;6.974;2023-07-29T13:55:09;4.50;;;1.67;;
52512;SDS011;38422;53.172;6.974;2023-07-29T13:57:36;6.55;;;1.80;;
52512;SDS011;38422;53.172;6.974;2023-07-29T14:00:02;4.35;;;1.70;;
52512;SDS011;38422;53.172;6.974;2023-07-29T14:02:28;4.20;;;1.40;;
52512;SDS011;38422;53.172;6.974;2023-07-29T14:04:56;3.53;;;1.42;;
52512;SDS011;38422;53.172;6.974;2023-07-29T14:07:22;3.47;;;1.30;;
52512;SDS011;38422;53.172;6.974;2023-07-29T14:09:47;4.13;;;1.00;;
52512;SDS011;38422;53.172;6.974;2023-07-29T14:12:16;3.88;;;1.08;;
52512;SDS011;38422;53.172;6.974;2023-07-29T14:14:42;2.87;;;1.10;;
52512;SDS011;38422;53.172;6.974;2023-07-29T14:17:08;3.23;;;1.00;;
52512;SDS011;38422;53.172;6.974;2023-07-29T14:19:35;1.70;;;1.00;;
52512;SDS011;38422;53.172;6.974;2023-07-29T14:22:01;4.28;;;1.10;;
52512;SDS011;38422;53.172;6.974;2023-07-29T14:24:26;2.93;;;1.10;;
52512;SDS011;38422;53.172;6.974;2023-07-29T14:26:52;2.67;;;1.10;;
52512;SDS011;38422;53.172;6.974;2023-07-29T14:29:18;2.70;;;0.90;;
52512;SDS011;38422;53.172;6.974;2023-07-29T14:31:43;3.73;;;0.90;;
52512;SDS011;38422;53.172;6.974;2023-07-29T14:34:09;2.87;;;1.20;;
52512;SDS011;38422;53.172;6.974;2023-07-29T14:36:35;2.92;;;1.08;;
52512;SDS011;38422;53.172;6.974;2023-07-29T14:39:01;2.72;;;0.90;;
52512;SDS011;38422;53.172;6.974;2023-07-29T14:41:27;2.50;;;0.82;;
52512;SDS011;38422;53.172;6.974;2023-07-29T14:43:53;1.93;;;0.80;;
52512;SDS011;38422;53.172;6.974;2023-07-29T14:46:19;2.03;;;1.00;;
52512;SDS011;38422;53.172;6.974;2023-07-29T14:48:44;3.40;;;1.10;;
52512;SDS011;38422;53.172;6.974;2023-07-29T14:51:12;3.40;;;0.98;;
52512;SDS011;38422;53.172;6.974;2023-07-29T14:53:38;2.88;;;1.10;;
52512;SDS011;38422;53.172;6.974;2023-07-29T14:56:04;3.67;;;1.00;;
52512;SDS011;38422;53.172;6.974;2023-07-29T14:58:30;4.77;;;1.13;;
52512;SDS011;38422;53.172;6.974;2023-07-29T15:00:55;2.07;;;1.00;;
52512;SDS011;38422;53.172;6.974;2023-07-29T15:03:21;3.27;;;1.30;;
52512;SDS011;38422;53.172;6.974;2023-07-29T15:05:48;3.38;;;1.27;;
52512;SDS011;38422;53.172;6.974;2023-07-29T15:08:14;3.95;;;1.20;;
52512;SDS011;38422;53.172;6.974;2023-07-29T15:10:40;4.47;;;1.03;;
52512;SDS011;38422;53.172;6.974;2023-07-29T15:13:06;1.00;;;0.80;;
52512;SDS011;38422;53.172;6.974;2023-07-29T15:15:31;1.93;;;0.90;;
52512;SDS011;38422;53.172;6.974;2023-07-29T15:17:57;3.00;;;1.10;;